DLH5910 EDDF-LFPG
Flight info
| Callsign | DLH5910 |
|---|---|
| Flight time | N/A |
| Altitude | 24000 |
| Route | SOBRA2L/18 SOBRA Y180 DIK UN857 TOLVU/N0329F230 DCT RAPOR DCT VEDUS |
| Aircraft | A20N/M-SDE2E3FGIJ1LORWXYZ/HB1 |
Departure
| Time | N/A |
|---|---|
| Airport | Frankfurt Main Airport (EDDF) |
Arrival
| Time | 2026-05-01 07:23 |
|---|---|
| Airport | Charles de Gaulle International Airport (LFPG) |
| Time | Latitude | Longitude | Altitude | Speed | Heading |
|---|---|---|---|---|---|
| 2026-05-01 07:23 | 49.01372 | 2.54935 | 355 ft | 25 kts | 170° |
| 2026-05-01 07:23 | 49.01232 | 2.54983 | 359 ft | 13 kts | 167° |
| 2026-05-01 07:24 | 49.01134 | 2.55028 | 359 ft | 17 kts | 161° |
| 2026-05-01 07:24 | 49.01014 | 2.55084 | 357 ft | 19 kts | 162° |
| 2026-05-01 07:24 | 49.00897 | 2.55135 | 358 ft | 17 kts | 163° |
| 2026-05-01 07:24 | 49.00768 | 2.55195 | 362 ft | 21 kts | 163° |
| 2026-05-01 07:25 | 49.00616 | 2.55256 | 360 ft | 25 kts | 164° |
| 2026-05-01 07:25 | 49.00466 | 2.55325 | 354 ft | 17 kts | 163° |
| 2026-05-01 07:25 | 49.00367 | 2.55370 | 361 ft | 13 kts | 163° |
| 2026-05-01 07:25 | 49.00347 | 2.55408 | 359 ft | 5 kts | 98° |
| 2026-05-01 07:26 | 49.00359 | 2.55483 | 358 ft | 9 kts | 58° |
| 2026-05-01 07:26 | 49.00423 | 2.55480 | 359 ft | 12 kts | 344° |
| 2026-05-01 07:26 | 49.00527 | 2.55435 | 358 ft | 18 kts | 344° |
| 2026-05-01 07:26 | 49.00662 | 2.55379 | 358 ft | 22 kts | 345° |
| 2026-05-01 07:27 | 49.00827 | 2.55303 | 359 ft | 27 kts | 346° |
| 2026-05-01 07:27 | 49.01007 | 2.55229 | 356 ft | 15 kts | 341° |
| 2026-05-01 07:27 | 49.01123 | 2.55173 | 355 ft | 20 kts | 346° |
| 2026-05-01 07:27 | 49.01243 | 2.55233 | 356 ft | 12 kts | 77° |
| 2026-05-01 07:28 | 49.01244 | 2.55353 | 359 ft | 6 kts | 126° |
| 2026-05-01 07:28 | 49.01195 | 2.55374 | 361 ft | 10 kts | 175° |
| 2026-05-01 07:28 | 49.01177 | 2.55376 | 358 ft | 0 kts | 174° |